Time;durP1;ratioP1;P1;durP2;ratioP2;P2;SDS_P1;SDS_P2;PMS_P1;PMS_P2;Temp;Humidity;BMP_temperature;BMP_pressure;BME280_temperature;BME280_humidity;BME280_pressure;Samples;Min_cycle;Max_cycle;Signal;HPM_P1;HPM_P2
2021/06/08 00:01:05;;;;;;;21.98;13.13;;;;;;;-141.86;100.00;57692.91;5067228;28;20037;-71
2021/06/08 00:03:32;;;;;;;20.58;12.95;;;;;;;-141.86;100.00;57692.91;5075735;28;20408;-73
2021/06/08 00:05:58;;;;;;;22.30;12.55;;;;;;;-141.86;100.00;57692.91;5066602;28;20560;-67
2021/06/08 00:08:24;;;;;;;19.40;11.90;;;;;;;-141.86;100.00;57692.91;5038201;28;20539;-72
2021/06/08 00:10:50;;;;;;;20.73;12.13;;;;;;;-141.86;100.00;57692.91;5080394;28;20043;-72
2021/06/08 00:13:16;;;;;;;26.73;12.50;;;;;;;-141.86;100.00;57692.91;5074784;28;20074;-74
2021/06/08 00:15:42;;;;;;;22.42;12.23;;;;;;;-141.86;100.00;57692.91;5052161;28;20041;-74
2021/06/08 00:18:08;;;;;;;24.20;12.57;;;;;;;-141.86;100.00;57692.91;5062704;28;20054;-74
2021/06/08 00:20:34;;;;;;;25.60;12.30;;;;;;;-141.86;100.00;57692.91;5064132;28;20401;-72
2021/06/08 00:22:59;;;;;;;27.88;13.45;;;;;;;-141.86;100.00;57692.91;5059709;28;20051;-73
2021/06/08 00:25:26;;;;;;;26.88;12.32;;;;;;;-141.86;100.00;57692.91;5038639;28;20045;-71
2021/06/08 00:28:03;;;;;;;20.98;12.27;;;;;;;-141.86;100.00;57692.91;5048016;28;20662;-72
2021/06/08 00:30:29;;;;;;;18.65;13.20;;;;;;;-141.86;100.00;57692.91;5048135;28;20131;-71
2021/06/08 00:32:55;;;;;;;19.80;14.05;;;;;;;-141.86;100.00;57692.91;5071559;28;20113;-70
2021/06/08 00:35:21;;;;;;;21.40;12.40;;;;;;;-141.86;100.00;57692.91;5068777;28;20044;-71
2021/06/08 00:37:47;;;;;;;26.00;12.70;;;;;;;-141.86;100.00;57692.91;5043247;28;20401;-72
2021/06/08 00:40:13;;;;;;;23.50;12.88;;;;;;;-141.86;100.00;57692.91;5069803;28;20118;-70
2021/06/08 00:42:39;;;;;;;21.05;12.85;;;;;;;-141.86;100.00;57692.91;5069954;28;20035;-72
2021/06/08 00:45:07;;;;;;;26.50;13.20;;;;;;;-141.86;100.00;57692.91;5071917;28;20041;-72
2021/06/08 00:47:33;;;;;;;24.90;12.30;;;;;;;-141.86;100.00;57692.91;5069212;28;20547;-72
2021/06/08 00:49:59;;;;;;;24.80;12.57;;;;;;;-141.86;100.00;57692.91;5033796;28;20058;-71
2021/06/08 00:52:25;;;;;;;25.35;12.68;;;;;;;-141.86;100.00;57692.91;5066297;28;20032;-71
2021/06/08 00:54:51;;;;;;;25.15;12.73;;;;;;;-141.86;100.00;57692.91;5076179;28;20130;-71
2021/06/08 00:57:17;;;;;;;23.70;13.10;;;;;;;-141.86;100.00;57692.91;5051484;28;20408;-68
2021/06/08 00:59:43;;;;;;;25.80;12.98;;;;;;;-141.86;100.00;57692.91;5075569;28;20189;-70
2021/06/08 01:02:09;;;;;;;21.33;13.23;;;;;;;-141.86;100.00;57692.91;5073472;28;20045;-70
2021/06/08 01:04:35;;;;;;;28.17;13.38;;;;;;;-141.86;100.00;57692.91;5058154;28;20561;-70
2021/06/08 01:07:03;;;;;;;24.10;13.32;;;;;;;-141.86;100.00;57692.91;5054834;28;20226;-71
2021/06/08 01:09:31;;;;;;;25.88;13.27;;;;;;;-141.86;100.00;57692.91;5054142;28;20044;-70
2021/06/08 01:11:57;;;;;;;28.42;12.82;;;;;;;-141.86;100.00;57692.91;5082714;28;20051;-71
2021/06/08 01:14:26;;;;;;;24.63;12.90;;;;;;;-141.86;100.00;57692.91;5056929;28;20048;-68
2021/06/08 01:16:52;;;;;;;24.70;13.50;;;;;;;-141.86;100.00;57692.91;5076289;28;20757;-71
2021/06/08 01:19:18;;;;;;;25.55;13.45;;;;;;;-141.86;100.00;57692.91;5033557;28;20464;-70
2021/06/08 01:21:44;;;;;;;26.58;14.23;;;;;;;-141.86;100.00;57692.91;5068512;28;20040;-72
2021/06/08 01:24:10;;;;;;;28.80;13.70;;;;;;;-141.86;100.00;57692.91;5072255;28;20044;-71
2021/06/08 01:26:38;;;;;;;20.65;13.48;;;;;;;-141.86;100.00;57692.91;5058724;28;20044;-72
2021/06/08 01:29:05;;;;;;;27.70;13.77;;;;;;;-141.86;100.00;57692.91;5072575;28;20454;-71
2021/06/08 01:31:34;;;;;;;19.75;12.68;;;;;;;-141.86;100.00;57692.91;5075008;28;20044;-69
2021/06/08 01:34:01;;;;;;;17.90;12.52;;;;;;;-141.86;100.00;57692.91;5074864;28;20070;-72
2021/06/08 01:36:32;;;;;;;20.30;12.65;;;;;;;-141.86;100.00;57692.91;5072505;28;20048;-71
2021/06/08 01:39:02;;;;;;;33.58;13.15;;;;;;;-141.86;100.00;57692.91;5070837;28;20059;-69
2021/06/08 01:41:28;;;;;;;22.98;12.23;;;;;;;-141.86;100.00;57692.91;5076340;28;20863;-71
2021/06/08 01:43:54;;;;;;;21.00;13.35;;;;;;;-141.86;100.00;57692.91;5059598;28;20254;-72
2021/06/08 01:46:23;;;;;;;23.05;12.40;;;;;;;-141.86;100.00;57692.91;5074758;28;20072;-72
2021/06/08 01:48:50;;;;;;;24.20;12.63;;;;;;;-141.86;100.00;57692.91;5041008;28;20444;-72
2021/06/08 01:51:55;;;;;;;23.27;12.70;;;;;;;-141.86;100.00;57692.91;5070349;28;20503;-70
2021/06/08 01:54:57;;;;;;;19.05;12.52;;;;;;;-141.86;100.00;57692.91;4982517;28;20515;-72
2021/06/08 01:57:46;;;;;;;21.55;12.07;;;;;;;-141.86;100.00;57692.91;4992995;28;20054;-72
2021/06/08 02:00:34;;;;;;;20.77;12.77;;;;;;;-141.86;100.00;57692.91;4972610;28;20042;-71
2021/06/08 02:03:00;;;;;;;21.60;13.43;;;;;;;-141.86;100.00;57692.91;4966983;28;20059;-72
2021/06/08 02:05:42;;;;;;;26.17;12.65;;;;;;;-141.86;100.00;57692.91;4975294;28;20424;-70
2021/06/08 02:08:38;;;;;;;22.85;12.60;;;;;;;-141.86;100.00;57692.91;4970769;28;20337;-72
2021/06/08 02:11:15;;;;;;;19.33;12.00;;;;;;;-141.86;100.00;57692.91;4979635;28;20053;-68
2021/06/08 02:14:05;;;;;;;22.60;12.25;;;;;;;-141.86;100.00;57692.91;4975606;28;20433;-74
2021/06/08 02:16:39;;;;;;;22.25;12.35;;;;;;;-141.86;100.00;57692.91;4952184;28;20161;-72
2021/06/08 02:19:05;;;;;;;24.73;13.57;;;;;;;-141.86;100.00;57692.91;4979882;28;20147;-73
2021/06/08 02:21:38;;;;;;;23.88;12.88;;;;;;;-141.86;100.00;57692.91;4972065;28;20186;-73
2021/06/08 02:24:10;;;;;;;19.73;12.02;;;;;;;-141.86;100.00;57692.91;4978107;28;20086;-74
2021/06/08 02:26:39;;;;;;;21.30;13.07;;;;;;;-141.86;100.00;57692.91;4966300;28;20046;-74
2021/06/08 02:29:06;;;;;;;22.60;12.77;;;;;;;-141.86;100.00;57692.91;4978808;28;20046;-74
2021/06/08 02:31:34;;;;;;;20.80;12.05;;;;;;;-141.86;100.00;57692.91;5016220;28;20049;-72
2021/06/08 02:34:03;;;;;;;27.48;12.70;;;;;;;-141.86;100.00;57692.91;5047441;28;20123;-71
2021/06/08 02:36:30;;;;;;;20.27;12.27;;;;;;;-141.86;100.00;57692.91;5049834;28;20072;-73
2021/06/08 02:38:58;;;;;;;19.58;12.63;;;;;;;-141.86;100.00;57692.91;5024707;28;20059;-69
2021/06/08 02:41:25;;;;;;;22.77;12.98;;;;;;;-141.86;100.00;57692.91;5027281;28;20048;-72
2021/06/08 02:43:53;;;;;;;23.83;13.38;;;;;;;-141.86;100.00;57692.91;5028806;28;20044;-70
2021/06/08 02:46:23;;;;;;;26.05;13.82;;;;;;;-141.86;100.00;57692.91;5009670;28;20040;-69
2021/06/08 02:48:50;;;;;;;17.23;12.10;;;;;;;-141.86;100.00;57692.91;5049291;28;20044;-74
2021/06/08 02:51:19;;;;;;;21.30;12.70;;;;;;;-141.86;100.00;57692.91;5046511;28;20124;-72
2021/06/08 02:53:45;;;;;;;20.40;12.55;;;;;;;-141.86;100.00;57692.91;5023613;28;20048;-71
2021/06/08 02:56:14;;;;;;;24.65;12.00;;;;;;;-141.86;100.00;57692.91;5046987;28;20128;-71
2021/06/08 02:58:43;;;;;;;21.35;11.93;;;;;;;-141.86;100.00;57692.91;5057645;28;20097;-71
2021/06/08 03:01:10;;;;;;;24.40;11.40;;;;;;;-141.86;100.00;57692.91;5058410;28;20408;-71
2021/06/08 03:03:38;;;;;;;24.45;12.07;;;;;;;-141.86;100.00;57692.91;5051504;28;20048;-71
2021/06/08 03:06:09;;;;;;;18.63;11.15;;;;;;;-141.86;100.00;57692.91;5053323;28;20493;-75
2021/06/08 03:09:00;;;;;;;24.88;11.73;;;;;;;-141.86;100.00;57692.91;5046566;28;20052;-73
2021/06/08 03:11:35;;;;;;;20.48;11.07;;;;;;;-141.86;100.00;57692.91;5053857;28;20485;-71
2021/06/08 03:14:02;;;;;;;19.25;11.75;;;;;;;-141.86;100.00;57692.91;5033647;28;20144;-72
2021/06/08 03:16:31;;;;;;;20.63;11.80;;;;;;;-141.86;100.00;57692.91;5047876;28;20040;-70
2021/06/08 03:19:02;;;;;;;28.08;10.98;;;;;;;-141.86;100.00;57692.91;5034057;28;20561;-70
2021/06/08 03:21:35;;;;;;;22.77;11.38;;;;;;;-141.86;100.00;57692.91;5049007;28;20067;-72
2021/06/08 03:24:05;;;;;;;24.30;11.95;;;;;;;-141.86;100.00;57692.91;5042105;28;20119;-72
2021/06/08 03:26:35;;;;;;;23.63;10.93;;;;;;;-141.86;100.00;57692.91;5026089;28;20067;-72
2021/06/08 03:29:06;;;;;;;27.38;12.50;;;;;;;-141.86;100.00;57692.91;5056110;28;20094;-72
2021/06/08 03:31:35;;;;;;;24.65;11.60;;;;;;;-141.86;100.00;57692.91;5063462;28;20040;-72
2021/06/08 03:34:01;;;;;;;32.00;17.35;;;;;;;-141.86;100.00;57692.91;5030070;28;20102;-74
2021/06/08 03:36:28;;;;;;;18.95;10.98;;;;;;;-141.86;100.00;57692.91;5054754;28;20152;-72
2021/06/08 03:38:54;;;;;;;19.67;10.55;;;;;;;-141.86;100.00;57692.91;5055052;28;20052;-73
2021/06/08 03:41:22;;;;;;;17.92;10.57;;;;;;;-141.86;100.00;57692.91;5053192;28;20365;-74
2021/06/08 03:43:49;;;;;;;19.02;10.30;;;;;;;-141.86;100.00;57692.91;4997034;28;20071;-76
2021/06/08 03:46:16;;;;;;;18.60;10.68;;;;;;;-141.86;100.00;57692.91;5025320;28;20045;-74
2021/06/08 03:48:43;;;;;;;20.38;11.20;;;;;;;-141.86;100.00;57692.91;5040842;28;20808;-75
2021/06/08 03:51:10;;;;;;;25.42;11.38;;;;;;;-141.86;100.00;57692.91;5063059;28;20101;-73
2021/06/08 03:53:40;;;;;;;20.40;11.48;;;;;;;-141.86;100.00;57692.91;5042492;28;20490;-73
2021/06/08 03:56:14;;;;;;;22.52;11.75;;;;;;;-141.86;100.00;57692.91;5035944;28;20052;-73
2021/06/08 03:58:41;;;;;;;21.38;10.98;;;;;;;-141.86;100.00;57692.91;5040986;28;20041;-74
2021/06/08 04:01:07;;;;;;;24.98;10.93;;;;;;;-141.86;100.00;57692.91;5042496;28;20044;-72
2021/06/08 04:03:34;;;;;;;18.15;11.95;;;;;;;-141.86;100.00;57692.91;5040717;28;20310;-72
2021/06/08 04:06:03;;;;;;;23.20;11.38;;;;;;;-141.86;100.00;57692.91;5044788;28;20044;-73
2021/06/08 04:08:30;;;;;;;23.48;11.63;;;;;;;-141.86;100.00;57692.91;5055507;28;20201;-73
2021/06/08 04:10:57;;;;;;;27.38;13.20;;;;;;;-141.86;100.00;57692.91;5052620;28;20536;-75
2021/06/08 04:13:23;;;;;;;24.02;11.25;;;;;;;-141.86;100.00;57692.91;5027700;28;20099;-71
2021/06/08 04:15:53;;;;;;;20.63;11.40;;;;;;;-141.86;100.00;57692.91;5058766;28;20055;-74
2021/06/08 04:18:20;;;;;;;21.27;11.93;;;;;;;-141.86;100.00;57692.91;5048884;28;20060;-71
2021/06/08 04:20:48;;;;;;;20.63;11.23;;;;;;;-141.86;100.00;57692.91;5048058;28;20605;-73
2021/06/08 04:23:14;;;;;;;15.05;10.65;;;;;;;-141.86;100.00;57692.91;5066262;28;20125;-73
2021/06/08 04:25:40;;;;;;;19.55;11.30;;;;;;;-141.86;100.00;57692.91;5082221;28;20543;-74
2021/06/08 04:28:06;;;;;;;19.02;12.32;;;;;;;-141.86;100.00;57692.91;5050397;28;20419;-73
2021/06/08 04:30:32;;;;;;;23.75;12.32;;;;;;;-141.86;100.00;57692.91;5049495;28;20095;-74
2021/06/08 04:32:58;;;;;;;19.60;11.60;;;;;;;-141.86;100.00;57692.91;5030512;28;20045;-72
2021/06/08 04:35:24;;;;;;;20.95;12.93;;;;;;;-141.86;100.00;57692.91;5047553;28;20041;-71
2021/06/08 04:37:50;;;;;;;32.10;11.77;;;;;;;-141.86;100.00;57692.91;5047992;28;20044;-74
2021/06/08 04:40:17;;;;;;;21.27;12.00;;;;;;;-141.86;100.00;57692.91;5059296;28;20040;-73
2021/06/08 04:42:45;;;;;;;25.73;11.93;;;;;;;-141.86;100.00;57692.91;5041518;28;20450;-73
2021/06/08 04:45:12;;;;;;;18.85;11.65;;;;;;;-141.86;100.00;57692.91;5013481;28;20067;-74
2021/06/08 04:47:38;;;;;;;18.58;11.10;;;;;;;-141.86;100.00;57692.91;5047239;28;20072;-73
2021/06/08 04:50:09;;;;;;;26.05;11.00;;;;;;;-141.86;100.00;57692.91;5047364;28;20440;-72
2021/06/08 04:52:36;;;;;;;20.95;10.55;;;;;;;-141.86;100.00;57692.91;5044697;28;20132;-73
2021/06/08 04:55:04;;;;;;;28.25;11.95;;;;;;;-141.86;100.00;57692.91;5028542;28;20049;-72
2021/06/08 04:57:34;;;;;;;25.33;11.10;;;;;;;-141.86;100.00;57692.91;5008884;28;20128;-72
2021/06/08 05:00:13;;;;;;;21.55;10.90;;;;;;;-141.86;100.00;57692.91;5035877;28;20075;-71
2021/06/08 05:03:10;;;;;;;21.40;12.25;;;;;;;-141.86;100.00;57692.91;5063815;28;20037;-74
2021/06/08 05:05:42;;;;;;;16.35;11.25;;;;;;;-141.86;100.00;57692.91;4993062;28;20050;-71
2021/06/08 05:08:39;;;;;;;21.13;11.87;;;;;;;-141.86;100.00;57692.91;4988375;28;20061;-73
2021/06/08 05:11:18;;;;;;;21.20;10.90;;;;;;;-141.86;100.00;57692.91;4988774;28;20284;-72
2021/06/08 05:13:52;;;;;;;17.40;10.75;;;;;;;-141.86;100.00;57692.91;4970915;28;20050;-72
2021/06/08 05:16:19;;;;;;;22.40;11.27;;;;;;;-141.86;100.00;57692.91;4984691;28;20050;-73
2021/06/08 05:18:48;;;;;;;22.00;10.45;;;;;;;-141.86;100.00;57692.91;4998118;28;20050;-73
2021/06/08 05:21:17;;;;;;;24.13;10.88;;;;;;;-141.86;100.00;57692.91;5022621;28;20049;-75
2021/06/08 05:23:44;;;;;;;17.73;10.73;;;;;;;-141.86;100.00;57692.91;5003619;28;20140;-71
2021/06/08 05:26:11;;;;;;;25.05;11.77;;;;;;;-141.86;100.00;57692.91;5021168;28;20125;-72
2021/06/08 05:28:41;;;;;;;18.92;10.02;;;;;;;-141.86;100.00;57692.91;4998952;28;20538;-72
2021/06/08 05:31:08;;;;;;;28.85;11.15;;;;;;;-141.86;100.00;57692.91;5008917;28;20099;-72
2021/06/08 05:33:34;;;;;;;22.63;10.45;;;;;;;-141.86;100.00;57692.91;5009717;28;20099;-74
2021/06/08 05:36:00;;;;;;;19.05;10.52;;;;;;;-141.86;100.00;57692.91;5015395;28;20057;-73
2021/06/08 05:38:35;;;;;;;20.70;10.55;;;;;;;-141.86;100.00;57692.91;4994770;28;20049;-71
2021/06/08 05:41:14;;;;;;;22.63;10.90;;;;;;;-141.86;100.00;57692.91;5012851;28;20045;-72
2021/06/08 05:43:42;;;;;;;26.38;10.85;;;;;;;-141.86;100.00;57692.91;5052311;28;20056;-75
2021/06/08 05:46:10;;;;;;;18.13;11.18;;;;;;;-141.86;100.00;57692.91;5072014;28;20902;-73
2021/06/08 05:48:41;;;;;;;22.90;10.53;;;;;;;-141.86;100.00;57692.91;5053657;28;20571;-76
2021/06/08 05:51:10;;;;;;;26.60;11.20;;;;;;;-141.86;100.00;57692.91;5051206;28;20060;-74
2021/06/08 05:53:38;;;;;;;21.70;10.95;;;;;;;-141.86;100.00;57692.91;5065647;28;20131;-75
2021/06/08 05:56:06;;;;;;;19.42;10.50;;;;;;;-141.86;100.00;57692.91;5058195;28;20040;-74
2021/06/08 05:58:33;;;;;;;19.20;10.73;;;;;;;-141.86;100.00;57692.91;5032866;28;20040;-76
2021/06/08 06:01:01;;;;;;;18.13;10.48;;;;;;;-141.86;100.00;57692.91;5043975;28;20051;-75
2021/06/08 06:03:28;;;;;;;28.92;10.95;;;;;;;-141.86;100.00;57692.91;5036760;28;20906;-72
2021/06/08 06:05:56;;;;;;;21.55;10.52;;;;;;;-141.86;100.00;57692.91;5050311;28;20044;-75
2021/06/08 06:08:24;;;;;;;25.30;10.32;;;;;;;-141.86;100.00;57692.91;5065512;28;20052;-71
2021/06/08 06:10:50;;;;;;;20.83;10.18;;;;;;;-141.86;100.00;57692.91;5028721;28;20296;-72
2021/06/08 06:13:25;;;;;;;24.05;9.70;;;;;;;-141.86;100.00;57692.91;5066596;28;20402;-75
2021/06/08 06:15:52;;;;;;;24.63;10.88;;;;;;;-141.86;100.00;57692.91;5037668;28;20056;-71
2021/06/08 06:18:20;;;;;;;24.88;10.13;;;;;;;-141.86;100.00;57692.91;5046275;28;20033;-74
2021/06/08 06:20:50;;;;;;;23.65;10.23;;;;;;;-141.86;100.00;57692.91;5015108;28;20040;-75
2021/06/08 06:23:24;;;;;;;20.55;9.90;;;;;;;-141.86;100.00;57692.91;5065579;28;20050;-74
2021/06/08 06:25:52;;;;;;;26.25;9.35;;;;;;;-141.86;100.00;57692.91;5066381;28;20055;-72
2021/06/08 06:28:19;;;;;;;22.73;9.32;;;;;;;-141.86;100.00;57692.91;5031274;28;20052;-72
2021/06/08 06:30:47;;;;;;;18.50;8.25;;;;;;;-141.86;100.00;57692.91;5067156;28;20041;-70
2021/06/08 06:33:15;;;;;;;21.60;9.45;;;;;;;-141.86;100.00;57692.91;5057779;28;20045;-73
2021/06/08 06:35:41;;;;;;;16.33;8.18;;;;;;;-141.86;100.00;57692.91;5028796;28;20588;-73
2021/06/08 06:38:08;;;;;;;14.88;8.20;;;;;;;-141.86;100.00;57692.91;5055773;28;21923;-73
2021/06/08 06:40:36;;;;;;;13.35;7.88;;;;;;;-141.86;100.00;57692.91;5038992;28;20041;-72
2021/06/08 06:43:24;;;;;;;17.63;7.65;;;;;;;-141.86;100.00;57692.91;5057400;28;20574;-73
2021/06/08 06:45:52;;;;;;;19.90;8.02;;;;;;;-141.86;100.00;57692.91;4994930;28;20093;-70
2021/06/08 06:48:18;;;;;;;16.42;8.07;;;;;;;-141.86;100.00;57692.91;5053210;28;20046;-71
2021/06/08 06:50:47;;;;;;;15.77;7.53;;;;;;;-141.86;100.00;57692.91;5066502;28;20072;-74
2021/06/08 06:53:17;;;;;;;14.70;7.85;;;;;;;-141.86;100.00;57692.91;5063296;28;20153;-70
2021/06/08 06:55:46;;;;;;;13.55;8.25;;;;;;;-141.86;100.00;57692.91;5059606;28;20051;-73
2021/06/08 06:58:12;;;;;;;18.02;8.77;;;;;;;-141.86;100.00;57692.91;5046331;28;20041;-72
2021/06/08 07:00:41;;;;;;;22.05;8.93;;;;;;;-141.86;100.00;57692.91;5062122;28;20040;-73
2021/06/08 07:03:09;;;;;;;17.08;7.65;;;;;;;-141.86;100.00;57692.91;5053099;28;20045;-72
2021/06/08 07:05:36;;;;;;;15.60;8.07;;;;;;;-141.86;100.00;57692.91;5028515;28;20131;-70
2021/06/08 07:08:05;;;;;;;18.05;8.20;;;;;;;-141.86;100.00;57692.91;5055489;28;20044;-72
2021/06/08 07:10:31;;;;;;;15.30;6.97;;;;;;;-141.86;100.00;57692.91;5042377;28;20041;-71
2021/06/08 07:13:03;;;;;;;22.25;7.65;;;;;;;-141.86;100.00;57692.91;5053465;28;20071;-71
2021/06/08 07:15:33;;;;;;;12.00;6.05;;;;;;;-141.86;100.00;57692.91;5047709;28;20052;-74
2021/06/08 07:18:00;;;;;;;19.17;6.10;;;;;;;-141.86;100.00;57692.91;5054012;28;20036;-73
2021/06/08 07:20:28;;;;;;;22.52;6.20;;;;;;;-141.86;100.00;57692.91;5068318;28;20040;-74
2021/06/08 07:22:57;;;;;;;18.67;6.00;;;;;;;-141.86;100.00;57692.91;5065366;28;20049;-73
2021/06/08 07:25:25;;;;;;;12.93;6.47;;;;;;;-141.86;100.00;57692.91;5052820;28;20045;-69
2021/06/08 07:27:54;;;;;;;18.05;6.10;;;;;;;-141.86;100.00;57692.91;5063740;28;20048;-71
2021/06/08 07:30:24;;;;;;;11.95;5.60;;;;;;;-141.86;100.00;57692.91;5049066;28;20044;-73
2021/06/08 07:33:15;;;;;;;16.60;5.70;;;;;;;-141.86;100.00;57692.91;5063834;28;20126;-71
2021/06/08 07:36:16;;;;;;;13.57;5.53;;;;;;;-141.86;100.00;57692.91;5042408;28;20132;-78
2021/06/08 07:39:05;;;;;;;13.07;5.25;;;;;;;-141.86;100.00;57692.91;5036197;28;21366;-72
2021/06/08 07:41:38;;;;;;;10.20;5.20;;;;;;;-141.86;100.00;57692.91;5042911;28;20036;-73
2021/06/08 07:44:11;;;;;;;9.70;4.78;;;;;;;-141.86;100.00;57692.91;5019621;28;20065;-74
2021/06/08 07:46:39;;;;;;;8.43;4.75;;;;;;;-141.86;100.00;57692.91;5045906;28;20040;-74
2021/06/08 07:49:11;;;;;;;12.73;4.57;;;;;;;-141.86;100.00;57692.91;5079752;28;20504;-73
2021/06/08 07:51:43;;;;;;;13.23;5.35;;;;;;;-141.86;100.00;57692.91;5050307;28;20503;-71
2021/06/08 07:54:11;;;;;;;18.05;4.65;;;;;;;-141.86;100.00;57692.91;5029570;28;20040;-70
2021/06/08 07:56:39;;;;;;;10.00;4.20;;;;;;;-141.86;100.00;57692.91;5045808;28;20045;-72
2021/06/08 07:59:08;;;;;;;12.90;4.80;;;;;;;-141.86;100.00;57692.91;5065076;28;20035;-73
2021/06/08 08:01:34;;;;;;;10.68;4.95;;;;;;;-141.86;100.00;57692.91;5040337;28;20041;-75
2021/06/08 08:04:00;;;;;;;6.80;4.75;;;;;;;-141.86;100.00;57692.91;5042161;28;20040;-73
2021/06/08 08:06:26;;;;;;;12.77;4.80;;;;;;;-141.86;100.00;57692.91;5027616;28;20052;-73
2021/06/08 08:08:56;;;;;;;7.85;4.30;;;;;;;-141.86;100.00;57692.91;5058335;28;20706;-73
2021/06/08 08:11:24;;;;;;;11.75;5.15;;;;;;;-141.86;100.00;57692.91;5039109;28;20089;-72
2021/06/08 08:13:52;;;;;;;10.73;5.20;;;;;;;-141.86;100.00;57692.91;5030041;28;20044;-73
2021/06/08 08:16:19;;;;;;;11.48;4.35;;;;;;;-141.86;100.00;57692.91;5031167;28;20044;-74
2021/06/08 08:18:46;;;;;;;8.80;3.40;;;;;;;-141.86;100.00;57692.91;5034712;28;20091;-73
2021/06/08 08:21:16;;;;;;;6.63;3.28;;;;;;;-141.86;100.00;57692.91;5054503;28;20048;-73
2021/06/08 08:23:43;;;;;;;7.35;3.80;;;;;;;-141.86;100.00;57692.91;5056915;28;20044;-71
2021/06/08 08:26:12;;;;;;;7.03;3.70;;;;;;;-141.86;100.00;57692.91;5047601;28;20051;-71
2021/06/08 08:28:40;;;;;;;10.23;4.32;;;;;;;-141.86;100.00;57692.91;5025643;28;20068;-71
2021/06/08 08:31:09;;;;;;;5.68;4.07;;;;;;;-141.86;100.00;57692.91;5065418;28;20044;-73
2021/06/08 08:33:36;;;;;;;6.82;4.93;;;;;;;-141.86;100.00;57692.91;5043483;28;20044;-72
2021/06/08 08:36:03;;;;;;;14.88;4.68;;;;;;;-141.86;100.00;57692.91;5036983;28;20131;-74
2021/06/08 08:38:30;;;;;;;9.15;4.72;;;;;;;-141.86;100.00;57692.91;5038339;28;20732;-73
2021/06/08 08:41:00;;;;;;;15.57;5.57;;;;;;;-141.86;100.00;57692.91;5047783;28;20040;-72
2021/06/08 08:43:26;;;;;;;11.88;4.70;;;;;;;-141.86;100.00;57692.91;5029595;28;20509;-70
2021/06/08 08:45:53;;;;;;;10.10;4.22;;;;;;;-141.86;100.00;57692.91;5062048;28;20044;-72
2021/06/08 08:48:20;;;;;;;11.30;4.72;;;;;;;-141.86;100.00;57692.91;5047253;28;20075;-73
2021/06/08 08:50:49;;;;;;;10.68;4.30;;;;;;;-141.86;100.00;57692.91;5013167;28;20072;-72
2021/06/08 08:53:19;;;;;;;9.48;4.75;;;;;;;-141.86;100.00;57692.91;5046858;28;20484;-72
2021/06/08 08:55:46;;;;;;;10.30;4.50;;;;;;;-141.86;100.00;57692.91;5036214;28;20058;-71
2021/06/08 08:58:14;;;;;;;10.82;5.00;;;;;;;-141.86;100.00;57692.91;5052977;28;20037;-72
2021/06/08 09:00:45;;;;;;;8.70;4.60;;;;;;;-141.86;100.00;57692.91;5062035;28;20044;-74
2021/06/08 09:03:14;;;;;;;8.63;4.40;;;;;;;-141.86;100.00;57692.91;5032027;28;20041;-75
2021/06/08 09:05:42;;;;;;;9.55;4.38;;;;;;;-141.86;100.00;57692.91;5068267;28;20441;-75
2021/06/08 09:08:09;;;;;;;8.25;4.22;;;;;;;-141.86;100.00;57692.91;5048503;28;20460;-74
2021/06/08 09:10:38;;;;;;;11.50;4.32;;;;;;;-141.86;100.00;57692.91;5070209;28;20047;-75
2021/06/08 09:13:05;;;;;;;9.10;3.47;;;;;;;-141.86;100.00;57692.91;5019921;28;20044;-74
2021/06/08 09:15:33;;;;;;;12.25;3.58;;;;;;;-141.86;100.00;57692.91;5068242;28;20093;-70
2021/06/08 09:17:59;;;;;;;8.63;3.60;;;;;;;-141.86;100.00;57692.91;5051862;28;20048;-70
2021/06/08 09:20:26;;;;;;;6.78;4.10;;;;;;;-141.86;100.00;57692.91;5054062;28;20044;-69
2021/06/08 09:22:57;;;;;;;7.95;3.75;;;;;;;-141.86;100.00;57692.91;5036388;28;20045;-69
2021/06/08 09:25:35;;;;;;;12.65;3.85;;;;;;;-141.86;100.00;57692.91;5032261;28;20040;-74
2021/06/08 09:28:21;;;;;;;8.85;3.95;;;;;;;-141.86;100.00;57692.91;5067795;28;20056;-71
2021/06/08 09:30:53;;;;;;;10.10;4.43;;;;;;;-141.86;100.00;57692.91;5051994;28;20052;-73
2021/06/08 09:33:20;;;;;;;10.45;4.40;;;;;;;-141.86;100.00;57692.91;5055397;28;20041;-71
2021/06/08 09:35:58;;;;;;;10.85;4.15;;;;;;;-141.86;100.00;57692.91;5031336;28;20049;-69
2021/06/08 09:38:50;;;;;;;12.50;3.92;;;;;;;-141.86;100.00;57692.91;5042540;28;20175;-76
2021/06/08 09:41:18;;;;;;;7.05;4.00;;;;;;;-141.86;100.00;57692.91;5048109;28;20601;-80
2021/06/08 09:44:00;;;;;;;9.15;3.63;;;;;;;-141.86;100.00;57692.91;5014047;28;20416;-80
2021/06/08 09:46:32;;;;;;;10.45;3.85;;;;;;;-141.86;100.00;57692.91;5074271;28;20042;-74
2021/06/08 09:49:05;;;;;;;10.75;4.20;;;;;;;-141.86;100.00;57692.91;5050687;28;20071;-75
2021/06/08 09:51:59;;;;;;;14.40;4.18;;;;;;;-141.86;100.00;57692.91;5047429;28;20037;-76
2021/06/08 09:54:38;;;;;;;9.10;3.95;;;;;;;-141.86;100.00;57692.91;5021172;28;20135;-76
2021/06/08 09:57:28;;;;;;;10.05;4.22;;;;;;;-141.86;100.00;57692.91;5048953;28;20116;-75
2021/06/08 09:59:57;;;;;;;7.00;3.53;;;;;;;-141.86;100.00;57692.91;5024325;28;20130;-75
2021/06/08 10:02:27;;;;;;;8.90;4.30;;;;;;;-141.86;100.00;57692.91;5075915;28;20070;-74
2021/06/08 10:05:24;;;;;;;13.50;4.32;;;;;;;-141.86;100.00;57692.91;5074676;28;20047;-75
2021/06/08 10:08:10;;;;;;;10.13;4.93;;;;;;;-141.86;100.00;57692.91;5055902;28;20129;-73
2021/06/08 10:10:46;;;;;;;14.10;4.75;;;;;;;-141.86;100.00;57692.91;5071023;28;20040;-72
2021/06/08 10:13:15;;;;;;;13.55;4.88;;;;;;;-141.86;100.00;57692.91;5020383;28;20040;-70
2021/06/08 10:16:03;;;;;;;19.27;5.40;;;;;;;-141.86;100.00;57692.91;5053707;28;20531;-73
2021/06/08 10:18:42;;;;;;;16.30;5.75;;;;;;;-141.86;100.00;57692.91;5057091;28;20075;-74
2021/06/08 10:21:08;;;;;;;20.77;7.25;;;;;;;-141.86;100.00;57692.91;5057975;28;20131;-72
2021/06/08 10:23:35;;;;;;;12.40;7.38;;;;;;;-141.86;100.00;57692.91;5058905;28;20566;-73
2021/06/08 10:26:07;;;;;;;17.17;8.48;;;;;;;-141.86;100.00;57692.91;5028026;28;20045;-72
2021/06/08 10:28:34;;;;;;;20.63;9.35;;;;;;;-141.86;100.00;57692.91;5028498;28;20222;-73
2021/06/08 10:31:01;;;;;;;22.73;10.00;;;;;;;-141.86;100.00;57692.91;5060073;28;20066;-74
2021/06/08 10:33:28;;;;;;;23.27;10.48;;;;;;;-141.86;100.00;57692.91;5060459;28;20056;-75
2021/06/08 10:35:55;;;;;;;29.13;10.50;;;;;;;-141.86;100.00;57692.91;5061290;28;20041;-74
2021/06/08 10:38:22;;;;;;;24.23;11.07;;;;;;;-141.86;100.00;57692.91;5031860;28;20051;-72
2021/06/08 10:40:55;;;;;;;20.77;10.38;;;;;;;-141.86;100.00;57692.91;5045019;28;20086;-75
2021/06/08 10:43:28;;;;;;;17.00;10.13;;;;;;;-141.86;100.00;57692.91;5036966;28;20463;-75
2021/06/08 10:45:56;;;;;;;26.83;10.85;;;;;;;-141.86;100.00;57692.91;5044863;28;20295;-73
2021/06/08 10:48:29;;;;;;;20.33;10.00;;;;;;;-141.86;100.00;57692.91;5027541;28;20098;-71
2021/06/08 10:51:13;;;;;;;17.13;10.05;;;;;;;-141.86;100.00;57692.91;5034791;28;20036;-76
2021/06/08 10:53:41;;;;;;;20.02;9.73;;;;;;;-141.86;100.00;57692.91;5060903;28;20044;-76
2021/06/08 10:56:34;;;;;;;17.52;10.13;;;;;;;-141.86;100.00;57692.91;5054072;28;20127;-75
2021/06/08 10:59:09;;;;;;;15.50;9.85;;;;;;;-141.86;100.00;57692.91;5058003;28;20048;-71
2021/06/08 11:01:42;;;;;;;21.13;10.30;;;;;;;-141.86;100.00;57692.91;5051042;28;20033;-72
2021/06/08 11:04:19;;;;;;;20.40;10.20;;;;;;;-141.86;100.00;57692.91;5052537;28;20045;-77
2021/06/08 11:07:04;;;;;;;14.65;9.55;;;;;;;-141.86;100.00;57692.91;5059751;28;20060;-69
2021/06/08 11:09:33;;;;;;;18.13;10.90;;;;;;;-141.86;100.00;57692.91;5044826;28;20083;-71
2021/06/08 11:12:05;;;;;;;20.23;10.32;;;;;;;-141.86;100.00;57692.91;5054746;28;20045;-71